sensor_id;sensor_type;location;lat;lon;timestamp;P1;durP1;ratioP1;P2;durP2;ratioP2
3081;SDS011;1551;51.046;7.010;2023-02-11T00:02:35;23.70;;;17.23;;
3081;SDS011;1551;51.046;7.010;2023-02-11T00:05:24;26.20;;;17.50;;
3081;SDS011;1551;51.046;7.010;2023-02-11T00:08:14;22.65;;;16.83;;
3081;SDS011;1551;51.046;7.010;2023-02-11T00:11:05;22.23;;;16.65;;
3081;SDS011;1551;51.046;7.010;2023-02-11T00:13:54;23.30;;;17.80;;
3081;SDS011;1551;51.046;7.010;2023-02-11T00:16:44;22.80;;;16.55;;
3081;SDS011;1551;51.046;7.010;2023-02-11T00:19:33;22.58;;;16.58;;
3081;SDS011;1551;51.046;7.010;2023-02-11T00:22:22;23.70;;;17.20;;
3081;SDS011;1551;51.046;7.010;2023-02-11T00:25:12;22.92;;;16.85;;
3081;SDS011;1551;51.046;7.010;2023-02-11T00:28:01;21.90;;;16.50;;
3081;SDS011;1551;51.046;7.010;2023-02-11T00:30:54;21.45;;;17.08;;
3081;SDS011;1551;51.046;7.010;2023-02-11T00:33:44;24.90;;;17.35;;
3081;SDS011;1551;51.046;7.010;2023-02-11T00:36:33;20.63;;;15.70;;
3081;SDS011;1551;51.046;7.010;2023-02-11T00:39:22;22.80;;;16.45;;
3081;SDS011;1551;51.046;7.010;2023-02-11T00:42:13;24.77;;;17.33;;
3081;SDS011;1551;51.046;7.010;2023-02-11T00:45:03;20.70;;;15.68;;
3081;SDS011;1551;51.046;7.010;2023-02-11T00:47:52;25.95;;;17.35;;
3081;SDS011;1551;51.046;7.010;2023-02-11T00:50:42;21.20;;;16.77;;
3081;SDS011;1551;51.046;7.010;2023-02-11T00:53:31;21.75;;;15.82;;
3081;SDS011;1551;51.046;7.010;2023-02-11T00:56:20;21.45;;;15.40;;
3081;SDS011;1551;51.046;7.010;2023-02-11T00:59:09;24.67;;;16.27;;
3081;SDS011;1551;51.046;7.010;2023-02-11T01:01:58;23.42;;;16.65;;
3081;SDS011;1551;51.046;7.010;2023-02-11T01:04:47;24.05;;;16.13;;
3081;SDS011;1551;51.046;7.010;2023-02-11T01:07:36;26.03;;;16.40;;
3081;SDS011;1551;51.046;7.010;2023-02-11T01:10:25;22.35;;;15.73;;
3081;SDS011;1551;51.046;7.010;2023-02-11T01:13:16;20.33;;;16.05;;
3081;SDS011;1551;51.046;7.010;2023-02-11T01:16:05;20.10;;;15.68;;
3081;SDS011;1551;51.046;7.010;2023-02-11T01:18:55;21.67;;;16.20;;
3081;SDS011;1551;51.046;7.010;2023-02-11T01:21:44;21.40;;;15.48;;
3081;SDS011;1551;51.046;7.010;2023-02-11T01:24:33;20.80;;;16.00;;
3081;SDS011;1551;51.046;7.010;2023-02-11T01:27:22;21.35;;;15.90;;
3081;SDS011;1551;51.046;7.010;2023-02-11T01:30:12;23.25;;;15.73;;
3081;SDS011;1551;51.046;7.010;2023-02-11T01:33:01;21.00;;;15.30;;
3081;SDS011;1551;51.046;7.010;2023-02-11T01:35:52;20.40;;;16.40;;
3081;SDS011;1551;51.046;7.010;2023-02-11T01:38:40;23.90;;;16.30;;
3081;SDS011;1551;51.046;7.010;2023-02-11T01:41:31;24.80;;;16.10;;
3081;SDS011;1551;51.046;7.010;2023-02-11T01:44:22;25.38;;;17.35;;
3081;SDS011;1551;51.046;7.010;2023-02-11T01:47:22;25.60;;;16.48;;
3081;SDS011;1551;51.046;7.010;2023-02-11T01:50:11;21.90;;;15.70;;
3081;SDS011;1551;51.046;7.010;2023-02-11T01:53:00;22.05;;;17.08;;
3081;SDS011;1551;51.046;7.010;2023-02-11T01:56:09;22.63;;;16.48;;
3081;SDS011;1551;51.046;7.010;2023-02-11T01:59:23;22.48;;;15.80;;
3081;SDS011;1551;51.046;7.010;2023-02-11T02:02:38;21.27;;;16.00;;
3081;SDS011;1551;51.046;7.010;2023-02-11T02:05:39;21.02;;;16.70;;
3081;SDS011;1551;51.046;7.010;2023-02-11T02:08:33;24.63;;;16.45;;
3081;SDS011;1551;51.046;7.010;2023-02-11T02:11:30;21.50;;;16.33;;
3081;SDS011;1551;51.046;7.010;2023-02-11T02:14:19;22.30;;;16.08;;
3081;SDS011;1551;51.046;7.010;2023-02-11T02:17:22;23.00;;;16.35;;
3081;SDS011;1551;51.046;7.010;2023-02-11T02:41:41;23.52;;;16.67;;
3081;SDS011;1551;51.046;7.010;2023-02-11T02:44:32;24.33;;;17.80;;
3081;SDS011;1551;51.046;7.010;2023-02-11T02:47:21;24.25;;;17.83;;
3081;SDS011;1551;51.046;7.010;2023-02-11T02:50:10;27.58;;;17.95;;
3081;SDS011;1551;51.046;7.010;2023-02-11T03:02:19;21.48;;;17.00;;
3081;SDS011;1551;51.046;7.010;2023-02-11T03:11:44;27.10;;;17.77;;
3081;SDS011;1551;51.046;7.010;2023-02-11T03:14:33;25.65;;;17.83;;
3081;SDS011;1551;51.046;7.010;2023-02-11T03:17:23;26.80;;;18.65;;
3081;SDS011;1551;51.046;7.010;2023-02-11T03:20:15;25.27;;;17.85;;
3081;SDS011;1551;51.046;7.010;2023-02-11T03:23:10;22.90;;;16.38;;
3081;SDS011;1551;51.046;7.010;2023-02-11T03:26:06;25.45;;;17.23;;
3081;SDS011;1551;51.046;7.010;2023-02-11T03:32:23;25.45;;;17.80;;
3081;SDS011;1551;51.046;7.010;2023-02-11T03:35:23;22.20;;;17.73;;
3081;SDS011;1551;51.046;7.010;2023-02-11T03:38:24;24.98;;;17.92;;
3081;SDS011;1551;51.046;7.010;2023-02-11T03:41:20;23.05;;;16.50;;
3081;SDS011;1551;51.046;7.010;2023-02-11T03:44:12;24.05;;;17.70;;
3081;SDS011;1551;51.046;7.010;2023-02-11T03:47:03;24.05;;;18.42;;
3081;SDS011;1551;51.046;7.010;2023-02-11T03:49:57;22.83;;;17.08;;
3081;SDS011;1551;51.046;7.010;2023-02-11T03:52:47;24.88;;;17.42;;
3081;SDS011;1551;51.046;7.010;2023-02-11T03:55:38;25.17;;;18.65;;
3081;SDS011;1551;51.046;7.010;2023-02-11T03:58:28;24.15;;;17.88;;
3081;SDS011;1551;51.046;7.010;2023-02-11T04:01:18;25.20;;;18.63;;
3081;SDS011;1551;51.046;7.010;2023-02-11T04:04:07;28.15;;;18.58;;
3081;SDS011;1551;51.046;7.010;2023-02-11T04:06:56;25.45;;;17.40;;
3081;SDS011;1551;51.046;7.010;2023-02-11T04:09:46;24.38;;;18.05;;
3081;SDS011;1551;51.046;7.010;2023-02-11T04:12:34;24.55;;;18.75;;
3081;SDS011;1551;51.046;7.010;2023-02-11T04:15:23;27.43;;;19.40;;
3081;SDS011;1551;51.046;7.010;2023-02-11T04:18:12;25.23;;;18.55;;
3081;SDS011;1551;51.046;7.010;2023-02-11T04:21:02;24.83;;;18.57;;
3081;SDS011;1551;51.046;7.010;2023-02-11T04:23:51;23.25;;;18.50;;
3081;SDS011;1551;51.046;7.010;2023-02-11T04:26:40;23.25;;;18.73;;
3081;SDS011;1551;51.046;7.010;2023-02-11T04:29:29;24.40;;;18.05;;
3081;SDS011;1551;51.046;7.010;2023-02-11T04:32:18;25.30;;;18.85;;
3081;SDS011;1551;51.046;7.010;2023-02-11T04:35:07;26.25;;;18.67;;
3081;SDS011;1551;51.046;7.010;2023-02-11T04:37:56;26.08;;;18.00;;
3081;SDS011;1551;51.046;7.010;2023-02-11T04:40:45;27.53;;;18.23;;
3081;SDS011;1551;51.046;7.010;2023-02-11T04:43:34;26.27;;;18.02;;
3081;SDS011;1551;51.046;7.010;2023-02-11T04:46:23;23.80;;;17.95;;
3081;SDS011;1551;51.046;7.010;2023-02-11T04:49:12;23.63;;;16.63;;
3081;SDS011;1551;51.046;7.010;2023-02-11T04:52:03;25.92;;;17.30;;
3081;SDS011;1551;51.046;7.010;2023-02-11T04:54:53;23.75;;;17.55;;
3081;SDS011;1551;51.046;7.010;2023-02-11T04:57:41;21.98;;;17.65;;
3081;SDS011;1551;51.046;7.010;2023-02-11T05:00:30;25.40;;;16.70;;
3081;SDS011;1551;51.046;7.010;2023-02-11T05:03:19;23.67;;;17.42;;
3081;SDS011;1551;51.046;7.010;2023-02-11T05:06:09;24.45;;;18.40;;
3081;SDS011;1551;51.046;7.010;2023-02-11T05:08:59;24.90;;;16.63;;
3081;SDS011;1551;51.046;7.010;2023-02-11T05:11:48;23.63;;;16.80;;
3081;SDS011;1551;51.046;7.010;2023-02-11T05:14:37;25.33;;;16.67;;
3081;SDS011;1551;51.046;7.010;2023-02-11T05:17:25;28.15;;;17.90;;
3081;SDS011;1551;51.046;7.010;2023-02-11T05:20:14;24.33;;;16.85;;
3081;SDS011;1551;51.046;7.010;2023-02-11T05:23:04;23.73;;;15.73;;
3081;SDS011;1551;51.046;7.010;2023-02-11T05:25:53;25.58;;;16.83;;
3081;SDS011;1551;51.046;7.010;2023-02-11T05:28:42;23.45;;;17.00;;
3081;SDS011;1551;51.046;7.010;2023-02-11T05:31:32;24.60;;;16.40;;
3081;SDS011;1551;51.046;7.010;2023-02-11T05:34:21;24.95;;;17.50;;
3081;SDS011;1551;51.046;7.010;2023-02-11T05:37:09;23.35;;;15.85;;
3081;SDS011;1551;51.046;7.010;2023-02-11T05:39:58;26.17;;;17.48;;
3081;SDS011;1551;51.046;7.010;2023-02-11T05:42:47;24.77;;;16.33;;
3081;SDS011;1551;51.046;7.010;2023-02-11T05:45:36;27.85;;;17.75;;
3081;SDS011;1551;51.046;7.010;2023-02-11T05:48:25;26.00;;;17.35;;
3081;SDS011;1551;51.046;7.010;2023-02-11T05:51:14;23.70;;;17.00;;
3081;SDS011;1551;51.046;7.010;2023-02-11T05:54:03;24.25;;;17.00;;
3081;SDS011;1551;51.046;7.010;2023-02-11T05:56:52;21.80;;;15.75;;
3081;SDS011;1551;51.046;7.010;2023-02-11T05:59:41;24.50;;;18.05;;
3081;SDS011;1551;51.046;7.010;2023-02-11T06:02:30;24.98;;;16.58;;
3081;SDS011;1551;51.046;7.010;2023-02-11T06:05:19;24.92;;;18.88;;
3081;SDS011;1551;51.046;7.010;2023-02-11T06:08:08;24.30;;;16.60;;
3081;SDS011;1551;51.046;7.010;2023-02-11T06:10:57;26.92;;;17.75;;
3081;SDS011;1551;51.046;7.010;2023-02-11T06:13:46;24.53;;;16.93;;
3081;SDS011;1551;51.046;7.010;2023-02-11T06:16:36;24.20;;;18.10;;
3081;SDS011;1551;51.046;7.010;2023-02-11T06:19:25;25.27;;;17.95;;
3081;SDS011;1551;51.046;7.010;2023-02-11T06:22:15;26.10;;;17.50;;
3081;SDS011;1551;51.046;7.010;2023-02-11T06:25:04;25.25;;;17.80;;
3081;SDS011;1551;51.046;7.010;2023-02-11T06:27:53;24.42;;;17.48;;
3081;SDS011;1551;51.046;7.010;2023-02-11T06:30:42;25.17;;;17.23;;
3081;SDS011;1551;51.046;7.010;2023-02-11T06:33:32;29.90;;;19.00;;
3081;SDS011;1551;51.046;7.010;2023-02-11T06:36:22;28.10;;;18.10;;
3081;SDS011;1551;51.046;7.010;2023-02-11T06:39:11;26.20;;;19.63;;
3081;SDS011;1551;51.046;7.010;2023-02-11T06:42:01;28.30;;;19.60;;
3081;SDS011;1551;51.046;7.010;2023-02-11T06:44:50;22.23;;;18.15;;
3081;SDS011;1551;51.046;7.010;2023-02-11T06:47:39;28.63;;;19.33;;
3081;SDS011;1551;51.046;7.010;2023-02-11T06:50:29;27.90;;;18.80;;
3081;SDS011;1551;51.046;7.010;2023-02-11T06:53:17;30.35;;;18.92;;
3081;SDS011;1551;51.046;7.010;2023-02-11T06:56:07;25.13;;;18.80;;
3081;SDS011;1551;51.046;7.010;2023-02-11T06:58:58;29.00;;;19.73;;
3081;SDS011;1551;51.046;7.010;2023-02-11T07:01:47;26.67;;;18.90;;
3081;SDS011;1551;51.046;7.010;2023-02-11T07:04:36;26.23;;;19.85;;
3081;SDS011;1551;51.046;7.010;2023-02-11T07:07:26;31.67;;;20.42;;
3081;SDS011;1551;51.046;7.010;2023-02-11T07:10:15;32.10;;;19.83;;
3081;SDS011;1551;51.046;7.010;2023-02-11T07:13:04;29.25;;;20.73;;
3081;SDS011;1551;51.046;7.010;2023-02-11T07:15:53;29.45;;;20.88;;
3081;SDS011;1551;51.046;7.010;2023-02-11T07:18:42;34.72;;;22.05;;
3081;SDS011;1551;51.046;7.010;2023-02-11T07:21:31;32.30;;;21.37;;
3081;SDS011;1551;51.046;7.010;2023-02-11T07:24:20;34.10;;;22.40;;
3081;SDS011;1551;51.046;7.010;2023-02-11T07:27:10;33.28;;;22.17;;
3081;SDS011;1551;51.046;7.010;2023-02-11T07:30:00;34.45;;;23.08;;
3081;SDS011;1551;51.046;7.010;2023-02-11T07:32:49;34.70;;;21.98;;
3081;SDS011;1551;51.046;7.010;2023-02-11T07:35:38;34.20;;;22.00;;
3081;SDS011;1551;51.046;7.010;2023-02-11T07:38:27;30.50;;;19.63;;
3081;SDS011;1551;51.046;7.010;2023-02-11T07:41:20;33.30;;;21.45;;
3081;SDS011;1551;51.046;7.010;2023-02-11T07:44:11;35.28;;;22.10;;
3081;SDS011;1551;51.046;7.010;2023-02-11T07:47:00;35.08;;;21.50;;
3081;SDS011;1551;51.046;7.010;2023-02-11T07:49:49;33.58;;;22.20;;
3081;SDS011;1551;51.046;7.010;2023-02-11T07:52:38;36.83;;;24.10;;
3081;SDS011;1551;51.046;7.010;2023-02-11T07:55:27;37.72;;;25.17;;
3081;SDS011;1551;51.046;7.010;2023-02-11T07:58:16;35.95;;;25.50;;
3081;SDS011;1551;51.046;7.010;2023-02-11T08:01:07;33.63;;;23.13;;
3081;SDS011;1551;51.046;7.010;2023-02-11T08:03:59;33.40;;;22.53;;
3081;SDS011;1551;51.046;7.010;2023-02-11T08:06:49;36.42;;;23.13;;
3081;SDS011;1551;51.046;7.010;2023-02-11T08:09:40;35.58;;;22.83;;
3081;SDS011;1551;51.046;7.010;2023-02-11T08:12:29;34.88;;;22.95;;
3081;SDS011;1551;51.046;7.010;2023-02-11T08:15:18;37.50;;;21.50;;
3081;SDS011;1551;51.046;7.010;2023-02-11T08:18:07;34.38;;;23.45;;
3081;SDS011;1551;51.046;7.010;2023-02-11T08:21:02;38.90;;;23.25;;
3081;SDS011;1551;51.046;7.010;2023-02-11T08:23:52;38.75;;;24.33;;
3081;SDS011;1551;51.046;7.010;2023-02-11T08:26:42;37.07;;;24.40;;
3081;SDS011;1551;51.046;7.010;2023-02-11T08:29:31;36.47;;;23.38;;
3081;SDS011;1551;51.046;7.010;2023-02-11T08:32:20;37.20;;;23.50;;
3081;SDS011;1551;51.046;7.010;2023-02-11T08:35:10;32.97;;;22.35;;
3081;SDS011;1551;51.046;7.010;2023-02-11T08:38:00;38.03;;;22.60;;
3081;SDS011;1551;51.046;7.010;2023-02-11T08:40:49;32.67;;;22.27;;
3081;SDS011;1551;51.046;7.010;2023-02-11T08:43:38;37.95;;;24.30;;
3081;SDS011;1551;51.046;7.010;2023-02-11T08:46:30;35.88;;;23.38;;
3081;SDS011;1551;51.046;7.010;2023-02-11T08:49:19;38.20;;;25.30;;
3081;SDS011;1551;51.046;7.010;2023-02-11T08:52:09;35.00;;;22.80;;
3081;SDS011;1551;51.046;7.010;2023-02-11T08:54:58;40.95;;;23.58;;
3081;SDS011;1551;51.046;7.010;2023-02-11T08:57:47;40.92;;;22.40;;
3081;SDS011;1551;51.046;7.010;2023-02-11T09:00:36;36.47;;;23.15;;
3081;SDS011;1551;51.046;7.010;2023-02-11T09:03:25;36.22;;;22.95;;
3081;SDS011;1551;51.046;7.010;2023-02-11T09:06:14;36.65;;;23.15;;
3081;SDS011;1551;51.046;7.010;2023-02-11T09:09:05;40.75;;;22.88;;
3081;SDS011;1551;51.046;7.010;2023-02-11T09:11:54;39.25;;;24.52;;
3081;SDS011;1551;51.046;7.010;2023-02-11T09:14:45;37.58;;;24.10;;
3081;SDS011;1551;51.046;7.010;2023-02-11T09:17:34;38.42;;;24.35;;
3081;SDS011;1551;51.046;7.010;2023-02-11T09:20:23;36.50;;;21.60;;
3081;SDS011;1551;51.046;7.010;2023-02-11T09:23:13;38.55;;;25.45;;
3081;SDS011;1551;51.046;7.010;2023-02-11T09:26:07;39.17;;;21.52;;
3081;SDS011;1551;51.046;7.010;2023-02-11T09:28:57;36.60;;;23.63;;
3081;SDS011;1551;51.046;7.010;2023-02-11T09:31:47;36.17;;;21.58;;
3081;SDS011;1551;51.046;7.010;2023-02-11T09:34:36;39.17;;;23.30;;
3081;SDS011;1551;51.046;7.010;2023-02-11T09:37:25;38.17;;;23.92;;
3081;SDS011;1551;51.046;7.010;2023-02-11T09:40:14;35.20;;;23.10;;
3081;SDS011;1551;51.046;7.010;2023-02-11T09:46:03;36.83;;;22.90;;
3081;SDS011;1551;51.046;7.010;2023-02-11T09:48:53;36.77;;;22.87;;
3081;SDS011;1551;51.046;7.010;2023-02-11T09:51:45;33.78;;;21.67;;
3081;SDS011;1551;51.046;7.010;2023-02-11T09:54:52;34.70;;;20.88;;
3081;SDS011;1551;51.046;7.010;2023-02-11T09:57:46;36.92;;;22.10;;
3081;SDS011;1551;51.046;7.010;2023-02-11T10:00:43;35.58;;;22.55;;
3081;SDS011;1551;51.046;7.010;2023-02-11T10:09:54;35.63;;;22.90;;
3081;SDS011;1551;51.046;7.010;2023-02-11T10:22:40;38.92;;;24.45;;
3081;SDS011;1551;51.046;7.010;2023-02-11T10:25:34;36.00;;;22.50;;
3081;SDS011;1551;51.046;7.010;2023-02-11T10:28:31;32.90;;;22.00;;
3081;SDS011;1551;51.046;7.010;2023-02-11T10:31:23;34.10;;;23.17;;
3081;SDS011;1551;51.046;7.010;2023-02-11T10:34:15;36.35;;;24.70;;
3081;SDS011;1551;51.046;7.010;2023-02-11T10:37:04;38.78;;;24.25;;
3081;SDS011;1551;51.046;7.010;2023-02-11T10:39:54;36.72;;;23.65;;
3081;SDS011;1551;51.046;7.010;2023-02-11T10:42:45;39.10;;;23.67;;
3081;SDS011;1551;51.046;7.010;2023-02-11T10:45:38;33.00;;;22.95;;
3081;SDS011;1551;51.046;7.010;2023-02-11T10:48:42;30.27;;;20.50;;
3081;SDS011;1551;51.046;7.010;2023-02-11T10:51:40;31.30;;;21.20;;
3081;SDS011;1551;51.046;7.010;2023-02-11T10:54:29;34.28;;;21.30;;
3081;SDS011;1551;51.046;7.010;2023-02-11T10:57:18;31.95;;;21.10;;
3081;SDS011;1551;51.046;7.010;2023-02-11T11:03:13;37.00;;;22.75;;
3081;SDS011;1551;51.046;7.010;2023-02-11T11:06:08;31.30;;;22.25;;
3081;SDS011;1551;51.046;7.010;2023-02-11T11:08:57;38.72;;;23.25;;
3081;SDS011;1551;51.046;7.010;2023-02-11T11:11:50;33.65;;;24.05;;
3081;SDS011;1551;51.046;7.010;2023-02-11T11:14:41;33.72;;;21.83;;
3081;SDS011;1551;51.046;7.010;2023-02-11T11:17:45;33.87;;;21.47;;
3081;SDS011;1551;51.046;7.010;2023-02-11T11:20:35;32.25;;;21.42;;
3081;SDS011;1551;51.046;7.010;2023-02-11T11:23:26;29.63;;;19.70;;
3081;SDS011;1551;51.046;7.010;2023-02-11T11:26:17;30.30;;;20.90;;
3081;SDS011;1551;51.046;7.010;2023-02-11T11:29:12;34.67;;;22.13;;
3081;SDS011;1551;51.046;7.010;2023-02-11T11:32:10;32.75;;;20.98;;
3081;SDS011;1551;51.046;7.010;2023-02-11T11:35:04;31.73;;;21.63;;
3081;SDS011;1551;51.046;7.010;2023-02-11T11:38:10;30.33;;;21.60;;
3081;SDS011;1551;51.046;7.010;2023-02-11T11:41:13;38.28;;;21.33;;
3081;SDS011;1551;51.046;7.010;2023-02-11T11:51:05;37.20;;;21.88;;
3081;SDS011;1551;51.046;7.010;2023-02-11T11:54:11;31.45;;;21.77;;
3081;SDS011;1551;51.046;7.010;2023-02-11T11:57:03;32.15;;;21.10;;
3081;SDS011;1551;51.046;7.010;2023-02-11T12:00:01;34.33;;;22.13;;
3081;SDS011;1551;51.046;7.010;2023-02-11T12:18:23;32.10;;;22.00;;
3081;SDS011;1551;51.046;7.010;2023-02-11T12:43:58;37.67;;;25.00;;
3081;SDS011;1551;51.046;7.010;2023-02-11T12:46:49;37.95;;;23.65;;
3081;SDS011;1551;51.046;7.010;2023-02-11T12:49:58;37.90;;;24.10;;
3081;SDS011;1551;51.046;7.010;2023-02-11T12:56:11;37.03;;;24.50;;
3081;SDS011;1551;51.046;7.010;2023-02-11T12:59:10;36.70;;;25.60;;
3081;SDS011;1551;51.046;7.010;2023-02-11T13:02:10;38.65;;;25.25;;
3081;SDS011;1551;51.046;7.010;2023-02-11T13:08:20;45.03;;;28.73;;
3081;SDS011;1551;51.046;7.010;2023-02-11T13:11:27;36.30;;;26.00;;
3081;SDS011;1551;51.046;7.010;2023-02-11T13:14:23;42.00;;;27.80;;
3081;SDS011;1551;51.046;7.010;2023-02-11T13:17:19;38.63;;;26.95;;
3081;SDS011;1551;51.046;7.010;2023-02-11T13:20:48;45.95;;;29.33;;
3081;SDS011;1551;51.046;7.010;2023-02-11T13:23:39;53.53;;;32.63;;
3081;SDS011;1551;51.046;7.010;2023-02-11T13:29:38;42.08;;;27.08;;
3081;SDS011;1551;51.046;7.010;2023-02-11T13:35:43;40.03;;;26.73;;
3081;SDS011;1551;51.046;7.010;2023-02-11T13:38:37;40.85;;;25.70;;
3081;SDS011;1551;51.046;7.010;2023-02-11T13:41:37;41.78;;;28.08;;
3081;SDS011;1551;51.046;7.010;2023-02-11T13:44:28;41.40;;;28.27;;
3081;SDS011;1551;51.046;7.010;2023-02-11T13:47:25;39.70;;;26.13;;
3081;SDS011;1551;51.046;7.010;2023-02-11T13:50:21;41.80;;;26.60;;
3081;SDS011;1551;51.046;7.010;2023-02-11T13:53:13;36.97;;;25.33;;
3081;SDS011;1551;51.046;7.010;2023-02-11T13:56:52;40.65;;;24.92;;
3081;SDS011;1551;51.046;7.010;2023-02-11T14:02:32;44.35;;;26.58;;
3081;SDS011;1551;51.046;7.010;2023-02-11T14:05:53;42.00;;;27.58;;
3081;SDS011;1551;51.046;7.010;2023-02-11T14:12:15;44.42;;;27.27;;
3081;SDS011;1551;51.046;7.010;2023-02-11T14:15:17;41.42;;;27.08;;
3081;SDS011;1551;51.046;7.010;2023-02-11T14:27:17;46.78;;;27.30;;
3081;SDS011;1551;51.046;7.010;2023-02-11T14:30:28;43.30;;;26.98;;
3081;SDS011;1551;51.046;7.010;2023-02-11T14:36:53;44.10;;;26.87;;
3081;SDS011;1551;51.046;7.010;2023-02-11T14:43:10;43.78;;;27.10;;
3081;SDS011;1551;51.046;7.010;2023-02-11T14:46:01;45.85;;;27.08;;
3081;SDS011;1551;51.046;7.010;2023-02-11T14:48:51;44.45;;;26.77;;
3081;SDS011;1551;51.046;7.010;2023-02-11T14:51:43;44.17;;;28.25;;
3081;SDS011;1551;51.046;7.010;2023-02-11T14:54:32;46.15;;;30.48;;
3081;SDS011;1551;51.046;7.010;2023-02-11T14:57:21;48.30;;;29.15;;
3081;SDS011;1551;51.046;7.010;2023-02-11T15:00:13;45.75;;;29.30;;
3081;SDS011;1551;51.046;7.010;2023-02-11T15:03:06;43.63;;;27.73;;
3081;SDS011;1551;51.046;7.010;2023-02-11T15:05:55;44.08;;;28.80;;
3081;SDS011;1551;51.046;7.010;2023-02-11T15:08:51;44.17;;;28.40;;
3081;SDS011;1551;51.046;7.010;2023-02-11T15:11:44;45.75;;;29.40;;
3081;SDS011;1551;51.046;7.010;2023-02-11T15:14:35;40.45;;;27.48;;
3081;SDS011;1551;51.046;7.010;2023-02-11T15:17:25;49.00;;;29.85;;
3081;SDS011;1551;51.046;7.010;2023-02-11T15:20:20;41.10;;;25.90;;
3081;SDS011;1551;51.046;7.010;2023-02-11T15:23:16;42.35;;;27.20;;
3081;SDS011;1551;51.046;7.010;2023-02-11T15:26:13;41.47;;;26.60;;
3081;SDS011;1551;51.046;7.010;2023-02-11T15:29:14;42.97;;;28.48;;
3081;SDS011;1551;51.046;7.010;2023-02-11T15:35:07;45.23;;;28.07;;
3081;SDS011;1551;51.046;7.010;2023-02-11T15:37:59;74.65;;;42.45;;
3081;SDS011;1551;51.046;7.010;2023-02-11T15:40:56;51.13;;;31.65;;
3081;SDS011;1551;51.046;7.010;2023-02-11T15:43:48;43.72;;;28.42;;
3081;SDS011;1551;51.046;7.010;2023-02-11T15:46:41;43.37;;;28.13;;
3081;SDS011;1551;51.046;7.010;2023-02-11T15:49:30;48.35;;;30.10;;
3081;SDS011;1551;51.046;7.010;2023-02-11T15:52:23;46.70;;;28.80;;
3081;SDS011;1551;51.046;7.010;2023-02-11T15:55:14;42.83;;;27.30;;
3081;SDS011;1551;51.046;7.010;2023-02-11T15:58:04;48.25;;;29.90;;
3081;SDS011;1551;51.046;7.010;2023-02-11T16:00:53;46.70;;;31.43;;
3081;SDS011;1551;51.046;7.010;2023-02-11T16:03:48;64.07;;;42.25;;
3081;SDS011;1551;51.046;7.010;2023-02-11T16:06:38;105.82;;;65.78;;
3081;SDS011;1551;51.046;7.010;2023-02-11T16:09:33;221.80;;;127.53;;
3081;SDS011;1551;51.046;7.010;2023-02-11T16:12:24;46.22;;;32.13;;
3081;SDS011;1551;51.046;7.010;2023-02-11T16:18:30;39.63;;;25.17;;
3081;SDS011;1551;51.046;7.010;2023-02-11T16:21:29;45.45;;;27.02;;
3081;SDS011;1551;51.046;7.010;2023-02-11T16:24:30;48.47;;;27.40;;
3081;SDS011;1551;51.046;7.010;2023-02-11T16:27:22;43.40;;;27.60;;
3081;SDS011;1551;51.046;7.010;2023-02-11T16:30:34;50.90;;;32.10;;
3081;SDS011;1551;51.046;7.010;2023-02-11T16:33:28;45.75;;;31.83;;
3081;SDS011;1551;51.046;7.010;2023-02-11T16:36:17;44.67;;;28.55;;
3081;SDS011;1551;51.046;7.010;2023-02-11T16:39:06;43.63;;;28.13;;
3081;SDS011;1551;51.046;7.010;2023-02-11T16:41:56;43.65;;;28.38;;
3081;SDS011;1551;51.046;7.010;2023-02-11T16:44:46;45.47;;;29.10;;
3081;SDS011;1551;51.046;7.010;2023-02-11T16:47:35;47.10;;;31.02;;
3081;SDS011;1551;51.046;7.010;2023-02-11T16:50:28;52.40;;;32.58;;
3081;SDS011;1551;51.046;7.010;2023-02-11T16:53:20;50.80;;;33.55;;
3081;SDS011;1551;51.046;7.010;2023-02-11T16:56:13;46.53;;;30.80;;
3081;SDS011;1551;51.046;7.010;2023-02-11T16:59:04;47.60;;;30.17;;
3081;SDS011;1551;51.046;7.010;2023-02-11T17:01:53;49.67;;;31.65;;
3081;SDS011;1551;51.046;7.010;2023-02-11T17:04:43;46.40;;;30.30;;
3081;SDS011;1551;51.046;7.010;2023-02-11T17:07:32;43.95;;;29.63;;
3081;SDS011;1551;51.046;7.010;2023-02-11T17:10:22;46.50;;;28.95;;
3081;SDS011;1551;51.046;7.010;2023-02-11T17:13:11;46.22;;;29.65;;
3081;SDS011;1551;51.046;7.010;2023-02-11T17:16:00;39.58;;;26.92;;
3081;SDS011;1551;51.046;7.010;2023-02-11T17:18:49;43.38;;;27.75;;
3081;SDS011;1551;51.046;7.010;2023-02-11T17:21:42;45.40;;;28.87;;
3081;SDS011;1551;51.046;7.010;2023-02-11T17:24:32;44.47;;;29.13;;
3081;SDS011;1551;51.046;7.010;2023-02-11T17:27:21;48.70;;;29.08;;
3081;SDS011;1551;51.046;7.010;2023-02-11T17:30:12;54.03;;;32.40;;
3081;SDS011;1551;51.046;7.010;2023-02-11T17:33:01;64.25;;;36.90;;
3081;SDS011;1551;51.046;7.010;2023-02-11T17:35:50;46.60;;;29.27;;
3081;SDS011;1551;51.046;7.010;2023-02-11T17:38:39;49.72;;;32.08;;
3081;SDS011;1551;51.046;7.010;2023-02-11T17:41:29;46.85;;;31.10;;
3081;SDS011;1551;51.046;7.010;2023-02-11T17:44:18;52.47;;;32.17;;
3081;SDS011;1551;51.046;7.010;2023-02-11T17:47:07;47.78;;;28.40;;
3081;SDS011;1551;51.046;7.010;2023-02-11T17:49:56;49.42;;;29.20;;
3081;SDS011;1551;51.046;7.010;2023-02-11T17:52:45;51.00;;;33.40;;
3081;SDS011;1551;51.046;7.010;2023-02-11T17:55:34;49.17;;;29.00;;
3081;SDS011;1551;51.046;7.010;2023-02-11T17:58:23;46.03;;;27.95;;
3081;SDS011;1551;51.046;7.010;2023-02-11T18:01:12;53.25;;;30.42;;
3081;SDS011;1551;51.046;7.010;2023-02-11T18:04:01;48.58;;;29.17;;
3081;SDS011;1551;51.046;7.010;2023-02-11T18:06:52;42.20;;;28.23;;
3081;SDS011;1551;51.046;7.010;2023-02-11T18:09:41;46.88;;;29.80;;
3081;SDS011;1551;51.046;7.010;2023-02-11T18:12:30;40.00;;;28.25;;
3081;SDS011;1551;51.046;7.010;2023-02-11T18:15:19;44.50;;;28.80;;
3081;SDS011;1551;51.046;7.010;2023-02-11T18:18:08;46.33;;;29.75;;
3081;SDS011;1551;51.046;7.010;2023-02-11T18:21:00;43.47;;;29.30;;
3081;SDS011;1551;51.046;7.010;2023-02-11T18:23:51;44.45;;;30.15;;
3081;SDS011;1551;51.046;7.010;2023-02-11T18:26:41;44.70;;;29.27;;
3081;SDS011;1551;51.046;7.010;2023-02-11T18:29:30;44.75;;;28.42;;
3081;SDS011;1551;51.046;7.010;2023-02-11T18:32:19;43.28;;;26.75;;
3081;SDS011;1551;51.046;7.010;2023-02-11T18:35:12;46.20;;;28.60;;
3081;SDS011;1551;51.046;7.010;2023-02-11T18:38:03;43.40;;;28.67;;
3081;SDS011;1551;51.046;7.010;2023-02-11T18:40:55;41.30;;;28.50;;
3081;SDS011;1551;51.046;7.010;2023-02-11T18:43:44;48.58;;;29.13;;
3081;SDS011;1551;51.046;7.010;2023-02-11T18:46:34;47.58;;;30.27;;
3081;SDS011;1551;51.046;7.010;2023-02-11T18:49:23;45.60;;;31.83;;
3081;SDS011;1551;51.046;7.010;2023-02-11T18:52:12;44.15;;;28.75;;
3081;SDS011;1551;51.046;7.010;2023-02-11T18:55:01;43.25;;;30.35;;
3081;SDS011;1551;51.046;7.010;2023-02-11T18:57:51;44.88;;;29.35;;
3081;SDS011;1551;51.046;7.010;2023-02-11T19:00:41;42.42;;;27.58;;
3081;SDS011;1551;51.046;7.010;2023-02-11T19:03:33;41.00;;;27.97;;
3081;SDS011;1551;51.046;7.010;2023-02-11T19:06:24;45.22;;;30.10;;
3081;SDS011;1551;51.046;7.010;2023-02-11T19:09:16;45.20;;;28.50;;
3081;SDS011;1551;51.046;7.010;2023-02-11T19:12:07;46.30;;;28.98;;
3081;SDS011;1551;51.046;7.010;2023-02-11T19:14:57;42.00;;;28.73;;
3081;SDS011;1551;51.046;7.010;2023-02-11T19:17:48;66.80;;;54.47;;
3081;SDS011;1551;51.046;7.010;2023-02-11T19:20:43;42.00;;;29.73;;
3081;SDS011;1551;51.046;7.010;2023-02-11T19:23:32;41.72;;;29.10;;
3081;SDS011;1551;51.046;7.010;2023-02-11T19:26:22;47.83;;;30.10;;
3081;SDS011;1551;51.046;7.010;2023-02-11T19:29:12;45.63;;;31.25;;
3081;SDS011;1551;51.046;7.010;2023-02-11T19:32:02;41.55;;;27.73;;
3081;SDS011;1551;51.046;7.010;2023-02-11T19:34:53;42.30;;;28.67;;
3081;SDS011;1551;51.046;7.010;2023-02-11T19:37:42;44.78;;;29.35;;
3081;SDS011;1551;51.046;7.010;2023-02-11T19:40:33;46.75;;;29.40;;
3081;SDS011;1551;51.046;7.010;2023-02-11T19:43:22;47.92;;;30.40;;
3081;SDS011;1551;51.046;7.010;2023-02-11T19:46:11;41.42;;;29.05;;